Time;durP1;ratioP1;P1;durP2;ratioP2;P2;SDS_P1;SDS_P2;PMS_P1;PMS_P2;Temp;Humidity;BMP_temperature;BMP_pressure;BME280_temperature;BME280_humidity;BME280_pressure;Samples;Min_cycle;Max_cycle;Signal;HPM_P1;HPM_P2
2022/03/15 00:01:21;;;;;;;0.57;0.57;;;-3.50;99.90;;;;;;5090572;28;20266;-83
2022/03/15 00:03:48;;;;;;;0.40;0.40;;;-3.50;99.90;;;;;;5110211;28;20207;-83
2022/03/15 00:06:14;;;;;;;1.13;0.85;;;-3.60;99.90;;;;;;5077303;28;20220;-83
2022/03/15 00:08:41;;;;;;;0.50;0.50;;;-3.70;99.90;;;;;;5076782;28;20686;-83
2022/03/15 00:11:08;;;;;;;0.45;0.45;;;-3.70;99.90;;;;;;5077174;28;20196;-83
2022/03/15 00:13:37;;;;;;;0.47;0.47;;;-3.70;99.90;;;;;;5076615;28;20569;-82
2022/03/15 00:16:05;;;;;;;0.50;0.50;;;-3.70;99.90;;;;;;5077284;28;20192;-85
2022/03/15 00:18:32;;;;;;;0.50;0.50;;;-3.80;99.90;;;;;;5076810;28;20208;-81
2022/03/15 00:20:59;;;;;;;0.60;0.60;;;-3.80;99.90;;;;;;5076890;28;20242;-81
2022/03/15 00:23:25;;;;;;;1.38;1.27;;;-3.90;99.90;;;;;;5088500;28;20200;-81
2022/03/15 00:25:52;;;;;;;0.50;0.50;;;-3.90;99.90;;;;;;5095547;28;20204;-81
2022/03/15 00:28:19;;;;;;;0.57;0.57;;;-4.00;99.90;;;;;;5097070;28;20250;-82
2022/03/15 00:30:45;;;;;;;0.40;0.40;;;-4.00;99.90;;;;;;5097162;28;20658;-81
2022/03/15 00:33:11;;;;;;;0.40;0.40;;;-4.00;99.90;;;;;;5097071;28;20230;-82
2022/03/15 00:35:37;;;;;;;0.43;0.43;;;-3.90;99.90;;;;;;5097146;28;20658;-81
2022/03/15 00:38:02;;;;;;;0.75;0.75;;;-3.80;99.90;;;;;;5096771;28;20249;-81
2022/03/15 00:40:28;;;;;;;0.50;0.50;;;-3.80;99.90;;;;;;5097032;28;20195;-81
2022/03/15 00:42:54;;;;;;;0.50;0.50;;;-3.90;99.90;;;;;;5096830;28;20195;-81
2022/03/15 00:45:24;;;;;;;0.40;0.40;;;-4.00;99.90;;;;;;5096221;28;20202;-81
2022/03/15 00:47:51;;;;;;;0.40;0.40;;;-4.00;99.90;;;;;;5078474;28;20261;-82
2022/03/15 00:50:17;;;;;;;0.70;0.70;;;-4.10;99.90;;;;;;5076331;28;20196;-82
2022/03/15 00:52:44;;;;;;;0.40;0.40;;;-4.20;99.90;;;;;;5076449;28;20199;-81
2022/03/15 00:55:10;;;;;;;0.50;0.50;;;-4.30;99.90;;;;;;5076460;28;20224;-81
2022/03/15 00:57:36;;;;;;;0.50;0.50;;;-4.40;99.90;;;;;;5076334;28;20348;-81
2022/03/15 01:00:04;;;;;;;0.90;0.90;;;-4.40;99.90;;;;;;5076414;28;20669;-81
2022/03/15 01:02:30;;;;;;;0.50;0.50;;;-4.40;99.90;;;;;;5072504;28;20235;-81
2022/03/15 01:04:56;;;;;;;0.50;0.50;;;-4.40;99.90;;;;;;5069250;28;20194;-81
2022/03/15 01:07:21;;;;;;;0.60;0.60;;;-4.30;99.90;;;;;;5052355;28;20249;-81
2022/03/15 01:09:47;;;;;;;0.50;0.50;;;-4.20;99.90;;;;;;5054260;28;20553;-82
2022/03/15 01:12:13;;;;;;;0.73;0.73;;;-4.20;99.90;;;;;;5053904;28;20627;-82
2022/03/15 01:14:39;;;;;;;0.43;0.43;;;-4.20;99.90;;;;;;5052341;28;20212;-82
2022/03/15 01:17:04;;;;;;;0.57;0.57;;;-4.10;99.90;;;;;;5057200;28;20200;-82
2022/03/15 01:19:30;;;;;;;0.40;0.40;;;-4.10;99.90;;;;;;5089118;28;20197;-82
2022/03/15 01:21:56;;;;;;;5.35;2.58;;;-4.20;99.90;;;;;;5089491;28;20197;-82
2022/03/15 01:24:22;;;;;;;2.78;0.82;;;-4.20;99.90;;;;;;5073457;28;20227;-82
2022/03/15 01:26:51;;;;;;;0.52;0.52;;;-4.30;99.90;;;;;;5089087;28;20208;-82
2022/03/15 01:29:18;;;;;;;0.45;0.45;;;-4.30;99.90;;;;;;5088924;28;20280;-82
2022/03/15 01:31:44;;;;;;;0.50;0.50;;;-4.40;99.90;;;;;;5089031;28;20193;-81
2022/03/15 01:34:10;;;;;;;0.50;0.50;;;-4.40;99.90;;;;;;5089009;28;20199;-81
2022/03/15 01:36:36;;;;;;;0.50;0.50;;;-4.40;99.90;;;;;;5088976;28;20756;-81
2022/03/15 01:39:04;;;;;;;0.50;0.50;;;-4.40;99.90;;;;;;5088865;28;20207;-82
2022/03/15 01:41:29;;;;;;;0.70;0.70;;;-4.40;99.90;;;;;;5088482;28;20629;-81
2022/03/15 01:43:55;;;;;;;0.50;0.50;;;-4.40;99.90;;;;;;5072614;28;20288;-81
2022/03/15 01:46:21;;;;;;;0.50;0.50;;;-4.40;99.90;;;;;;5062722;28;20227;-81
2022/03/15 01:48:47;;;;;;;0.40;0.40;;;-4.30;99.90;;;;;;5073131;28;20208;-81
2022/03/15 01:51:15;;;;;;;7.47;2.95;;;-4.20;99.90;;;;;;5071897;28;20192;-81
2022/03/15 01:53:41;;;;;;;0.50;0.50;;;-4.20;99.90;;;;;;5072826;28;20199;-80
2022/03/15 01:56:07;;;;;;;0.50;0.50;;;-4.20;99.90;;;;;;5072852;28;20212;-80
2022/03/15 01:58:33;;;;;;;5.75;1.80;;;-4.30;99.90;;;;;;5071147;28;20197;-85
2022/03/15 02:01:00;;;;;;;0.47;0.47;;;-4.30;99.90;;;;;;5072107;28;20208;-83
2022/03/15 02:03:25;;;;;;;0.70;0.70;;;-4.40;99.90;;;;;;5071166;28;20341;-83
2022/03/15 02:05:52;;;;;;;0.40;0.40;;;-4.40;99.90;;;;;;5071994;28;20228;-85
2022/03/15 02:08:18;;;;;;;0.80;0.80;;;-4.40;99.90;;;;;;5071701;28;20220;-82
2022/03/15 02:10:44;;;;;;;1.08;0.85;;;-4.40;99.90;;;;;;5071416;28;20193;-82
2022/03/15 02:13:11;;;;;;;0.40;0.40;;;-4.40;99.90;;;;;;5071389;28;20208;-80
2022/03/15 02:15:37;;;;;;;2.47;1.42;;;-4.40;99.90;;;;;;5071108;28;20193;-81
2022/03/15 02:18:04;;;;;;;4.25;1.15;;;-4.40;99.90;;;;;;5070270;28;20200;-81
2022/03/15 02:20:31;;;;;;;3.17;1.73;;;-4.40;99.90;;;;;;5071452;28;20212;-81
2022/03/15 02:22:57;;;;;;;0.60;0.60;;;-4.40;99.90;;;;;;5072848;28;20225;-81
2022/03/15 02:25:24;;;;;;;0.50;0.50;;;-4.40;99.90;;;;;;5071695;28;20605;-82
2022/03/15 02:27:51;;;;;;;0.63;0.60;;;-4.40;99.90;;;;;;5071397;28;20295;-81
2022/03/15 02:30:17;;;;;;;0.40;0.40;;;-4.40;99.90;;;;;;5071502;28;20197;-80
2022/03/15 02:32:47;;;;;;;2.42;1.20;;;-4.50;99.90;;;;;;5072650;28;20309;-81
2022/03/15 02:35:16;;;;;;;1.80;1.65;;;-4.40;99.90;;;;;;5071288;28;20314;-81
2022/03/15 02:37:45;;;;;;;0.40;0.40;;;-4.40;99.90;;;;;;5072408;28;20196;-81
2022/03/15 02:40:11;;;;;;;0.50;0.50;;;-4.40;99.90;;;;;;5071290;28;20651;-81
2022/03/15 02:42:36;;;;;;;0.50;0.50;;;-4.40;99.90;;;;;;5070923;28;20216;-81
2022/03/15 02:45:03;;;;;;;0.50;0.50;;;-4.30;99.90;;;;;;5071356;28;20193;-81
2022/03/15 02:47:28;;;;;;;0.50;0.50;;;-4.30;99.90;;;;;;5072323;28;20562;-81
2022/03/15 02:49:54;;;;;;;0.47;0.47;;;-4.40;99.90;;;;;;5071551;28;20192;-81
2022/03/15 02:52:20;;;;;;;0.50;0.50;;;-4.40;99.90;;;;;;5070949;28;20288;-81
2022/03/15 02:54:46;;;;;;;0.50;0.50;;;-4.40;99.90;;;;;;5071133;28;20220;-81
2022/03/15 02:57:12;;;;;;;0.40;0.40;;;-4.50;99.90;;;;;;5072202;28;20247;-81
2022/03/15 02:59:39;;;;;;;0.50;0.50;;;-4.50;99.90;;;;;;5072325;28;20192;-81
2022/03/15 03:02:06;;;;;;;0.70;0.70;;;-4.50;99.90;;;;;;5069206;28;20609;-82
2022/03/15 03:04:32;;;;;;;0.85;0.85;;;-4.50;99.90;;;;;;5067227;28;20775;-80
2022/03/15 03:07:01;;;;;;;0.50;0.50;;;-4.60;99.90;;;;;;5068014;28;20189;-81
2022/03/15 03:09:27;;;;;;;0.60;0.60;;;-4.60;99.90;;;;;;5071547;28;20217;-81
2022/03/15 03:11:53;;;;;;;1.33;1.25;;;-4.60;99.90;;;;;;5091997;28;20284;-80
2022/03/15 03:14:21;;;;;;;4.78;1.95;;;-4.50;99.90;;;;;;5076591;28;20224;-80
2022/03/15 03:16:47;;;;;;;0.40;0.40;;;-4.40;99.90;;;;;;5091776;28;20192;-82
2022/03/15 03:19:13;;;;;;;0.55;0.52;;;-4.40;99.90;;;;;;5075346;28;20195;-82
2022/03/15 03:21:40;;;;;;;1.95;1.40;;;-4.40;99.90;;;;;;5091914;28;20196;-82
2022/03/15 03:24:06;;;;;;;0.50;0.50;;;-4.40;99.90;;;;;;5091627;28;20203;-82
2022/03/15 03:26:37;;;;;;;0.50;0.50;;;-4.40;99.90;;;;;;5091731;28;20203;-81
2022/03/15 03:29:09;;;;;;;0.35;0.35;;;-4.40;99.90;;;;;;5076094;28;20664;-83
2022/03/15 03:31:42;;;;;;;0.45;0.45;;;-4.50;99.90;;;;;;5075943;28;20646;-83
2022/03/15 03:34:09;;;;;;;0.93;0.93;;;-4.50;99.90;;;;;;5091457;28;20660;-83
2022/03/15 03:36:36;;;;;;;0.40;0.40;;;-4.50;99.90;;;;;;5073563;28;20205;-82
2022/03/15 03:39:04;;;;;;;0.40;0.40;;;-4.60;99.90;;;;;;5067232;28;20232;-82
2022/03/15 03:41:30;;;;;;;0.40;0.40;;;-4.70;99.90;;;;;;5091275;28;20596;-82
2022/03/15 03:43:56;;;;;;;0.50;0.50;;;-4.80;99.90;;;;;;5091754;28;20288;-82
2022/03/15 03:46:21;;;;;;;0.77;0.77;;;-4.80;99.90;;;;;;5091132;28;20255;-82
2022/03/15 03:48:51;;;;;;;0.50;0.50;;;-4.90;99.90;;;;;;5091634;28;20200;-83
2022/03/15 03:51:18;;;;;;;0.67;0.67;;;-5.00;99.90;;;;;;5074106;28;20265;-82
2022/03/15 03:53:43;;;;;;;0.53;0.53;;;-5.00;99.90;;;;;;5074240;28;20258;-82
2022/03/15 03:56:09;;;;;;;0.67;0.67;;;-5.10;99.90;;;;;;5074249;28;20201;-82
2022/03/15 03:58:35;;;;;;;0.40;0.40;;;-5.20;99.90;;;;;;5074325;28;20248;-82
2022/03/15 04:01:01;;;;;;;0.50;0.50;;;-5.20;99.90;;;;;;5073801;28;20204;-82
2022/03/15 04:03:31;;;;;;;0.50;0.50;;;-5.30;99.90;;;;;;5067907;28;20273;-83
2022/03/15 04:05:56;;;;;;;0.50;0.50;;;-5.20;99.90;;;;;;5073988;28;20540;-80
2022/03/15 04:08:23;;;;;;;0.57;0.57;;;-5.30;99.90;;;;;;5075212;28;20207;-80
2022/03/15 04:10:50;;;;;;;0.50;0.50;;;-5.20;99.90;;;;;;5074263;28;20663;-80
2022/03/15 04:13:18;;;;;;;0.50;0.50;;;-5.30;99.90;;;;;;5075266;28;20253;-80
2022/03/15 04:15:48;;;;;;;0.80;0.80;;;-5.30;99.90;;;;;;5074152;28;20314;-80
2022/03/15 04:18:14;;;;;;;0.50;0.50;;;-5.30;99.90;;;;;;5073888;28;20216;-80
2022/03/15 04:20:41;;;;;;;0.60;0.60;;;-5.30;99.90;;;;;;5074842;28;20614;-81
2022/03/15 04:23:08;;;;;;;0.47;0.47;;;-5.40;99.90;;;;;;5075235;28;20655;-81
2022/03/15 04:25:34;;;;;;;0.50;0.50;;;-5.40;99.90;;;;;;5073887;28;20197;-80
2022/03/15 04:28:03;;;;;;;3.60;2.40;;;-5.40;99.90;;;;;;5074154;28;20200;-80
2022/03/15 04:30:29;;;;;;;0.50;0.50;;;-5.50;99.90;;;;;;5073591;28;20197;-80
2022/03/15 04:32:55;;;;;;;0.60;0.60;;;-5.50;99.90;;;;;;5055664;28;20715;-80
2022/03/15 04:35:21;;;;;;;0.40;0.40;;;-5.50;99.90;;;;;;5068141;28;20759;-81
2022/03/15 04:37:48;;;;;;;0.75;0.75;;;-5.60;99.90;;;;;;5073162;28;20311;-80
2022/03/15 04:40:16;;;;;;;0.40;0.40;;;-5.60;99.90;;;;;;5073542;28;20219;-81
2022/03/15 04:42:41;;;;;;;0.50;0.50;;;-5.60;99.90;;;;;;5074576;28;20193;-80
2022/03/15 04:45:08;;;;;;;0.50;0.50;;;-5.60;99.90;;;;;;5074696;28;20574;-80
2022/03/15 04:47:34;;;;;;;3.93;1.77;;;-5.60;99.90;;;;;;5073740;28;20208;-78
2022/03/15 04:49:59;;;;;;;0.53;0.53;;;-5.60;99.90;;;;;;5074160;28;20295;-79
2022/03/15 04:52:25;;;;;;;0.93;0.93;;;-5.70;99.90;;;;;;5074482;28;20204;-79
2022/03/15 04:54:51;;;;;;;0.50;0.50;;;-5.70;99.90;;;;;;5073299;28;20205;-80
2022/03/15 04:57:17;;;;;;;0.50;0.50;;;-5.80;99.90;;;;;;5072931;28;20299;-81
2022/03/15 04:59:43;;;;;;;4.07;2.00;;;-5.80;99.90;;;;;;5074289;28;20553;-80
2022/03/15 05:02:08;;;;;;;0.50;0.50;;;-5.80;99.90;;;;;;5076170;28;20227;-81
2022/03/15 05:04:34;;;;;;;0.57;0.57;;;-5.90;99.90;;;;;;5065530;28;20613;-81
2022/03/15 05:07:00;;;;;;;0.50;0.50;;;-5.90;99.90;;;;;;5063615;28;20299;-81
2022/03/15 05:09:26;;;;;;;0.53;0.53;;;-5.90;99.90;;;;;;5056118;28;20250;-81
2022/03/15 05:11:52;;;;;;;0.50;0.50;;;-5.90;99.90;;;;;;5056209;28;20215;-82
2022/03/15 05:14:18;;;;;;;0.50;0.50;;;-6.00;99.90;;;;;;5056131;28;20197;-81
2022/03/15 05:16:44;;;;;;;2.67;2.00;;;-6.00;99.90;;;;;;5056204;28;20212;-81
2022/03/15 05:19:10;;;;;;;0.87;0.87;;;-6.00;99.90;;;;;;5074091;28;20607;-81
2022/03/15 05:21:36;;;;;;;0.50;0.50;;;-6.00;99.90;;;;;;5055612;28;20197;-81
2022/03/15 05:24:02;;;;;;;0.70;0.70;;;-6.00;99.90;;;;;;5056416;28;20208;-81
2022/03/15 05:26:27;;;;;;;0.47;0.47;;;-6.00;99.90;;;;;;5055715;28;20192;-82
2022/03/15 05:28:53;;;;;;;0.50;0.50;;;-6.00;99.90;;;;;;5055962;28;20232;-81
2022/03/15 05:31:22;;;;;;;1.35;1.25;;;-6.00;99.90;;;;;;5071999;28;20207;-81
2022/03/15 05:33:49;;;;;;;1.43;1.33;;;-6.00;99.90;;;;;;5095835;28;20294;-80
2022/03/15 05:36:15;;;;;;;0.50;0.50;;;-6.00;99.90;;;;;;5096503;28;20199;-80
2022/03/15 05:38:43;;;;;;;0.70;0.70;;;-5.80;99.90;;;;;;5114215;28;20582;-80
2022/03/15 05:41:09;;;;;;;0.60;0.60;;;-5.70;99.90;;;;;;5112228;28;20650;-80
2022/03/15 05:43:36;;;;;;;0.70;0.70;;;-5.60;99.90;;;;;;5093619;28;20199;-79
2022/03/15 05:46:03;;;;;;;0.60;0.60;;;-5.50;99.90;;;;;;5072951;28;20831;-79
2022/03/15 05:48:28;;;;;;;0.50;0.50;;;-5.50;99.90;;;;;;5067482;28;20207;-79
2022/03/15 05:50:54;;;;;;;0.50;0.50;;;-5.40;99.90;;;;;;5074770;28;20212;-81
2022/03/15 05:53:20;;;;;;;0.50;0.50;;;-5.40;99.90;;;;;;5076029;28;20252;-80
2022/03/15 05:55:45;;;;;;;0.80;0.80;;;-5.40;99.90;;;;;;5075880;28;20277;-80
2022/03/15 05:58:14;;;;;;;0.57;0.57;;;-5.40;99.90;;;;;;5075810;28;20212;-83
2022/03/15 06:00:40;;;;;;;0.60;0.60;;;-5.30;99.90;;;;;;5092914;28;20305;-82
2022/03/15 06:03:05;;;;;;;0.50;0.50;;;-5.30;99.90;;;;;;5082385;28;20224;-82
2022/03/15 06:05:31;;;;;;;0.50;0.50;;;-5.30;99.90;;;;;;5054384;28;20208;-82
2022/03/15 06:07:57;;;;;;;0.60;0.60;;;-5.30;99.90;;;;;;5035971;28;20617;-82
2022/03/15 06:10:23;;;;;;;0.43;0.43;;;-5.30;99.90;;;;;;5035829;28;20335;-82
2022/03/15 06:12:50;;;;;;;0.90;0.90;;;-5.10;99.90;;;;;;5036036;28;20209;-83
2022/03/15 06:15:17;;;;;;;1.07;0.97;;;-5.00;99.90;;;;;;5054143;28;20590;-83
2022/03/15 06:17:47;;;;;;;0.40;0.40;;;-4.90;99.90;;;;;;5035769;28;20227;-83
2022/03/15 06:20:15;;;;;;;0.60;0.60;;;-4.70;99.90;;;;;;5053238;28;20641;-83
2022/03/15 06:22:41;;;;;;;0.65;0.65;;;-4.50;99.90;;;;;;5035777;28;20211;-81
2022/03/15 06:25:08;;;;;;;0.40;0.40;;;-4.40;99.90;;;;;;5035918;28;20209;-83
2022/03/15 06:27:34;;;;;;;0.47;0.47;;;-4.30;99.90;;;;;;5045432;28;20201;-83
2022/03/15 06:30:00;;;;;;;1.98;1.80;;;-4.10;99.90;;;;;;5055528;28;20205;-85
2022/03/15 06:32:26;;;;;;;0.73;0.73;;;-4.00;99.90;;;;;;5055981;28;20647;-82
2022/03/15 06:34:51;;;;;;;0.50;0.50;;;-4.00;99.90;;;;;;5056292;28;20211;-84
2022/03/15 06:37:17;;;;;;;1.27;0.82;;;-3.90;99.90;;;;;;5055729;28;20282;-84
2022/03/15 06:39:44;;;;;;;0.40;0.40;;;-3.80;99.90;;;;;;5035779;28;20197;-84
2022/03/15 06:42:11;;;;;;;0.70;0.70;;;-3.80;99.90;;;;;;5053460;28;20712;-86
2022/03/15 06:44:40;;;;;;;0.98;0.98;;;-3.70;99.90;;;;;;5034501;28;20202;-85
2022/03/15 06:47:06;;;;;;;1.30;1.10;;;-3.70;99.90;;;;;;5035781;28;20193;-86
2022/03/15 06:49:32;;;;;;;0.40;0.40;;;-3.60;99.90;;;;;;5035592;28;20205;-84
2022/03/15 06:51:58;;;;;;;0.38;0.38;;;-3.60;99.90;;;;;;5035539;28;20203;-84
2022/03/15 06:54:24;;;;;;;0.52;0.52;;;-3.50;99.90;;;;;;5037290;28;20236;-81
2022/03/15 06:56:50;;;;;;;1.75;1.40;;;-3.40;99.90;;;;;;5055248;28;20254;-83
2022/03/15 06:59:16;;;;;;;0.40;0.40;;;-3.30;99.90;;;;;;5055447;28;20197;-84
2022/03/15 07:01:42;;;;;;;0.40;0.40;;;-3.10;99.90;;;;;;5056726;28;20332;-84
2022/03/15 07:04:07;;;;;;;0.70;0.70;;;-3.00;99.90;;;;;;5085761;28;20592;-84
2022/03/15 07:06:34;;;;;;;0.40;0.40;;;-2.80;99.90;;;;;;5054983;28;20196;-84
2022/03/15 07:09:00;;;;;;;2.08;1.27;;;-2.70;99.90;;;;;;5055122;28;20209;-84
2022/03/15 07:11:26;;;;;;;0.40;0.40;;;-2.60;99.90;;;;;;5055180;28;20203;-84
2022/03/15 07:13:51;;;;;;;1.23;1.08;;;-2.50;99.90;;;;;;5055571;28;20290;-82
2022/03/15 07:16:17;;;;;;;0.60;0.60;;;-2.30;99.90;;;;;;5055488;28;20656;-83
2022/03/15 07:18:43;;;;;;;0.45;0.45;;;-2.20;99.90;;;;;;5054891;28;20265;-83
2022/03/15 07:21:09;;;;;;;0.85;0.75;;;-2.00;99.90;;;;;;5055236;28;20601;-83
2022/03/15 07:23:35;;;;;;;0.50;0.50;;;-1.80;99.90;;;;;;5055196;28;20556;-87
2022/03/15 07:26:00;;;;;;;0.73;0.73;;;-1.70;99.90;;;;;;5055588;28;20197;-86
2022/03/15 07:28:26;;;;;;;1.20;1.15;;;-1.50;99.90;;;;;;5071597;28;20200;-85
2022/03/15 07:30:52;;;;;;;1.08;0.98;;;-1.40;99.90;;;;;;5072203;28;20228;-86
2022/03/15 07:33:18;;;;;;;0.50;0.50;;;-1.20;99.90;;;;;;5053982;28;20671;-86
2022/03/15 07:35:43;;;;;;;1.85;1.02;;;-1.00;99.90;;;;;;5054878;28;20224;-86
2022/03/15 07:38:09;;;;;;;0.55;0.55;;;-0.80;99.90;;;;;;5055190;28;20219;-87
2022/03/15 07:40:35;;;;;;;0.30;0.30;;;-0.60;99.90;;;;;;5054555;28;20205;-87
2022/03/15 07:43:01;;;;;;;0.50;0.50;;;-0.50;99.90;;;;;;5054939;28;20287;-88
2022/03/15 07:45:27;;;;;;;0.40;0.40;;;-0.30;99.90;;;;;;5038441;28;20576;-88
2022/03/15 07:47:52;;;;;;;0.50;0.50;;;-0.20;99.90;;;;;;5055586;28;20203;-85
2022/03/15 07:50:19;;;;;;;0.40;0.40;;;0.00;99.90;;;;;;5055311;28;20193;-87
2022/03/15 07:52:47;;;;;;;0.93;0.93;;;0.20;99.90;;;;;;5054965;28;20647;-86
2022/03/15 07:55:13;;;;;;;0.60;0.60;;;0.30;99.90;;;;;;5055517;28;20200;-85
2022/03/15 07:57:39;;;;;;;1.45;1.35;;;0.40;99.90;;;;;;5076529;28;20611;-85
2022/03/15 08:00:05;;;;;;;0.60;0.60;;;0.60;99.90;;;;;;5076425;28;20192;-84
2022/03/15 08:02:31;;;;;;;0.38;0.38;;;0.60;99.90;;;;;;5052947;28;20233;-86
2022/03/15 08:04:58;;;;;;;0.55;0.55;;;0.80;99.90;;;;;;5074106;28;20648;-86
2022/03/15 08:07:24;;;;;;;4.15;2.35;;;1.00;99.90;;;;;;5057396;28;20204;-86
2022/03/15 08:09:50;;;;;;;1.02;0.98;;;1.00;99.90;;;;;;5058100;28;20542;-87
2022/03/15 08:12:17;;;;;;;2.47;0.70;;;1.30;99.90;;;;;;5058549;28;20200;-86
2022/03/15 08:14:44;;;;;;;0.52;0.52;;;1.50;99.90;;;;;;5058619;28;20201;-86
2022/03/15 08:17:10;;;;;;;0.57;0.57;;;1.70;99.90;;;;;;5058456;28;20209;-87
2022/03/15 08:19:36;;;;;;;0.90;0.80;;;2.00;99.90;;;;;;5058320;28;20242;-88
2022/03/15 08:22:02;;;;;;;2.40;1.55;;;2.00;99.90;;;;;;5074988;28;20225;-90
2022/03/15 08:24:28;;;;;;;0.65;0.65;;;2.20;99.90;;;;;;5075097;28;20197;-90
2022/03/15 08:26:55;;;;;;;0.70;0.70;;;2.40;99.90;;;;;;5076430;28;20632;-90
2022/03/15 08:29:21;;;;;;;0.60;0.60;;;2.60;99.90;;;;;;5076397;28;20192;-87
2022/03/15 08:31:46;;;;;;;0.50;0.50;;;2.50;99.90;;;;;;5062023;28;20197;-86
2022/03/15 08:34:12;;;;;;;0.45;0.45;;;2.60;99.90;;;;;;5058557;28;20651;-88
2022/03/15 08:36:38;;;;;;;0.40;0.40;;;2.80;99.90;;;;;;5057814;28;20197;-87
2022/03/15 08:39:04;;;;;;;0.60;0.60;;;3.10;99.90;;;;;;5058019;28;20292;-87
2022/03/15 08:41:30;;;;;;;1.88;0.80;;;3.30;99.90;;;;;;5057311;28;20726;-88
2022/03/15 08:43:56;;;;;;;0.50;0.50;;;3.40;99.90;;;;;;5057980;28;20288;-88
2022/03/15 08:46:21;;;;;;;0.98;0.70;;;3.60;99.90;;;;;;5057785;28;20288;-88
2022/03/15 08:48:47;;;;;;;0.52;0.52;;;3.90;99.90;;;;;;5057932;28;20206;-88
2022/03/15 08:51:16;;;;;;;0.73;0.73;;;4.10;99.90;;;;;;5057972;28;20196;-85
2022/03/15 08:53:41;;;;;;;0.40;0.40;;;4.30;99.90;;;;;;5075377;28;20200;-84
2022/03/15 08:56:07;;;;;;;0.30;0.30;;;4.50;99.90;;;;;;5057724;28;20193;-84
2022/03/15 08:58:33;;;;;;;0.40;0.40;;;4.40;99.90;;;;;;5057366;28;20287;-85
2022/03/15 09:00:59;;;;;;;0.50;0.50;;;4.50;99.90;;;;;;5057612;28;20215;-85
2022/03/15 09:03:24;;;;;;;7.65;3.08;;;4.70;99.90;;;;;;5070142;28;20224;-85
2022/03/15 09:05:50;;;;;;;3.85;1.55;;;4.90;99.90;;;;;;5073908;28;20219;-86
2022/03/15 09:08:16;;;;;;;1.38;0.98;;;5.00;99.90;;;;;;5073487;28;20215;-85
2022/03/15 09:10:47;;;;;;;5.43;1.67;;;5.20;99.90;;;;;;5073861;28;20209;-86
2022/03/15 09:13:13;;;;;;;0.30;0.30;;;5.40;99.90;;;;;;5073906;28;20201;-85
2022/03/15 09:15:40;;;;;;;0.40;0.40;;;5.60;99.90;;;;;;5073168;28;20322;-87
2022/03/15 09:18:07;;;;;;;1.05;0.85;;;5.90;99.90;;;;;;5075057;28;20207;-86
2022/03/15 09:20:33;;;;;;;0.80;0.80;;;6.00;99.90;;;;;;5073808;28;20211;-86
2022/03/15 09:22:59;;;;;;;0.77;0.73;;;6.10;99.90;;;;;;5074216;28;20197;-87
2022/03/15 09:25:25;;;;;;;0.73;0.73;;;6.30;99.90;;;;;;5073690;28;20193;-87
2022/03/15 09:27:51;;;;;;;2.80;2.00;;;6.30;99.90;;;;;;5073624;28;20197;-86
2022/03/15 09:30:19;;;;;;;4.85;1.90;;;6.50;99.90;;;;;;5073691;28;20196;-86
2022/03/15 09:32:45;;;;;;;0.52;0.52;;;6.40;99.90;;;;;;5074052;28;20193;-86
2022/03/15 09:35:11;;;;;;;1.20;1.02;;;6.60;99.90;;;;;;5073938;28;20258;-86
2022/03/15 09:37:36;;;;;;;0.50;0.50;;;6.60;99.90;;;;;;5073883;28;20270;-87
2022/03/15 09:40:08;;;;;;;1.02;1.02;;;6.60;99.90;;;;;;5073824;28;20193;-88
2022/03/15 09:42:36;;;;;;;2.95;1.65;;;6.80;99.90;;;;;;5073759;28;20201;-88
2022/03/15 09:45:04;;;;;;;1.60;1.15;;;7.10;99.90;;;;;;5073768;28;20197;-88
2022/03/15 09:47:34;;;;;;;1.00;0.90;;;7.30;99.90;;;;;;5073534;28;20246;-91
2022/03/15 09:50:03;;;;;;;1.17;1.13;;;7.40;99.90;;;;;;5073686;28;20301;-90
2022/03/15 09:52:29;;;;;;;0.75;0.75;;;7.70;99.90;;;;;;5072769;28;20200;-89
2022/03/15 09:54:56;;;;;;;1.08;0.98;;;7.90;99.90;;;;;;5072952;28;20607;-90
2022/03/15 09:57:22;;;;;;;0.50;0.50;;;7.90;99.90;;;;;;5073412;28;20250;-92
2022/03/15 09:59:58;;;;;;;0.40;0.40;;;8.00;99.90;;;;;;5074314;28;20201;-88
2022/03/15 10:02:26;;;;;;;0.80;0.80;;;7.90;99.90;;;;;;5073572;28;20744;-91
2022/03/15 10:04:54;;;;;;;0.68;0.68;;;8.20;99.90;;;;;;5070308;28;20203;-90
2022/03/15 10:07:20;;;;;;;1.10;1.02;;;8.30;99.90;;;;;;5052953;28;20224;-87
2022/03/15 10:09:46;;;;;;;1.75;1.25;;;8.30;99.90;;;;;;5054603;28;20660;-91
2022/03/15 10:12:14;;;;;;;1.38;1.13;;;8.50;99.90;;;;;;5061469;28;20694;-91
2022/03/15 10:14:49;;;;;;;0.55;0.55;;;8.90;99.90;;;;;;5073657;28;20212;-91
2022/03/15 10:17:16;;;;;;;0.57;0.52;;;9.10;99.90;;;;;;5073932;28;20236;-92
2022/03/15 10:19:56;;;;;;;2.33;1.35;;;9.10;99.90;;;;;;5073494;28;20197;-91
2022/03/15 10:22:25;;;;;;;0.68;0.65;;;9.30;99.90;;;;;;5073599;28;20262;-91
2022/03/15 10:24:52;;;;;;;0.60;0.55;;;9.30;99.90;;;;;;5073757;28;20211;-92
2022/03/15 10:27:25;;;;;;;0.70;0.70;;;9.30;99.90;;;;;;5073346;28;20565;-91
2022/03/15 10:29:53;;;;;;;1.33;1.10;;;9.20;99.90;;;;;;5073282;28;20212;-90
2022/03/15 10:32:27;;;;;;;2.80;1.05;;;9.10;99.90;;;;;;5073495;28;20251;-89
2022/03/15 10:35:08;;;;;;;0.38;0.32;;;9.20;99.90;;;;;;5073850;28;20215;-93
2022/03/15 10:37:35;;;;;;;1.52;1.27;;;9.20;99.90;;;;;;5073232;28;20212;-91
2022/03/15 10:40:04;;;;;;;0.75;0.75;;;9.40;99.90;;;;;;5073569;28;20205;-92
2022/03/15 10:42:37;;;;;;;4.15;1.10;;;9.80;99.90;;;;;;5072878;28;20232;-92
2022/03/15 10:45:15;;;;;;;3.60;2.05;;;10.10;99.90;;;;;;5074748;28;20315;-93
2022/03/15 10:47:53;;;;;;;1.10;1.00;;;10.20;99.90;;;;;;5072745;28;20295;-94
2022/03/15 10:50:21;;;;;;;4.78;2.08;;;10.50;99.90;;;;;;5072534;28;20193;-90
2022/03/15 10:52:47;;;;;;;1.75;1.48;;;10.70;99.90;;;;;;5072846;28;20193;-92
2022/03/15 10:55:30;;;;;;;2.63;1.55;;;10.90;99.90;;;;;;5075685;28;20189;-93
2022/03/15 10:58:03;;;;;;;0.63;0.63;;;11.00;99.90;;;;;;5058816;28;20200;-93
2022/03/15 11:00:41;;;;;;;0.70;0.70;;;11.00;99.90;;;;;;5073082;28;20203;-93
2022/03/15 11:03:23;;;;;;;1.08;0.95;;;10.90;99.90;;;;;;5078623;28;20323;-95
2022/03/15 11:05:50;;;;;;;5.28;2.22;;;10.70;99.90;;;;;;5056626;28;20671;-95
2022/03/15 11:08:22;;;;;;;2.17;1.58;;;11.00;99.90;;;;;;5059270;28;20212;-93
2022/03/15 11:11:21;;;;;;;0.90;0.90;;;10.90;99.90;;;;;;5073259;28;20196;-90
2022/03/15 11:13:50;;;;;;;6.03;2.53;;;11.20;99.90;;;;;;5072475;28;20667;-91
2022/03/15 11:16:17;;;;;;;2.90;1.83;;;11.40;99.90;;;;;;5072621;28;20244;-92
2022/03/15 11:18:43;;;;;;;2.95;1.30;;;11.50;99.90;;;;;;5073195;28;20662;-92
2022/03/15 11:21:10;;;;;;;1.45;0.55;;;11.50;98.20;;;;;;5073413;28;20596;-93
2022/03/15 11:23:39;;;;;;;1.17;0.90;;;11.40;99.50;;;;;;5073285;28;20622;-94
2022/03/15 11:26:06;;;;;;;1.60;1.50;;;11.70;98.60;;;;;;5073193;28;20551;-94
2022/03/15 11:28:37;;;;;;;3.78;1.73;;;11.80;97.60;;;;;;5072521;28;20204;-94
2022/03/15 11:31:04;;;;;;;1.95;1.58;;;11.80;97.30;;;;;;5074719;28;20192;-93
2022/03/15 11:33:34;;;;;;;2.47;1.50;;;11.90;96.90;;;;;;5077075;28;20228;-95
2022/03/15 11:36:03;;;;;;;7.22;1.92;;;12.10;95.80;;;;;;5077879;28;20684;-93
2022/03/15 11:38:29;;;;;;;7.90;2.00;;;11.90;96.10;;;;;;5077325;28;20226;-95
2022/03/15 11:40:57;;;;;;;0.60;0.60;;;11.80;95.70;;;;;;5077072;28;20193;-93
2022/03/15 11:43:42;;;;;;;1.42;1.23;;;12.00;94.20;;;;;;5076776;28;20728;-95
2022/03/15 11:46:46;;;;;;;3.28;1.75;;;11.90;94.20;;;;;;5082396;28;20207;-92
2022/03/15 11:49:44;;;;;;;2.33;1.70;;;11.90;93.70;;;;;;5079331;28;20219;-91
2022/03/15 11:52:55;;;;;;;0.98;0.73;;;12.20;93.20;;;;;;5075630;28;20287;-92
2022/03/15 11:55:39;;;;;;;1.75;1.13;;;12.30;92.60;;;;;;5073382;28;20747;-90
2022/03/15 11:58:11;;;;;;;7.40;2.35;;;12.60;91.50;;;;;;5076079;28;20193;-90
2022/03/15 12:00:57;;;;;;;4.22;1.70;;;12.60;90.90;;;;;;5075829;28;20197;-91
2022/03/15 12:03:29;;;;;;;1.60;1.50;;;12.40;91.60;;;;;;5075348;28;20695;-94
2022/03/15 12:06:03;;;;;;;2.00;1.73;;;12.40;92.00;;;;;;5060920;28;20196;-93
2022/03/15 12:08:43;;;;;;;1.13;1.05;;;12.50;90.80;;;;;;5058933;28;20297;-92
2022/03/15 12:11:09;;;;;;;1.77;1.48;;;11.80;91.10;;;;;;5063665;28;20199;-91
2022/03/15 12:13:45;;;;;;;1.42;1.33;;;12.10;91.10;;;;;;5059675;28;20193;-93
2022/03/15 12:16:18;;;;;;;1.70;1.55;;;12.30;90.80;;;;;;5049136;28;20284;-94
2022/03/15 12:19:13;;;;;;;1.35;1.25;;;12.50;91.50;;;;;;5056627;28;20197;-94
2022/03/15 12:21:49;;;;;;;0.82;0.82;;;12.60;90.00;;;;;;5058994;28;20279;-90
2022/03/15 12:24:41;;;;;;;1.27;1.20;;;12.50;90.90;;;;;;5059435;28;20200;-95
2022/03/15 12:27:09;;;;;;;3.28;2.90;;;13.00;91.50;;;;;;5059406;28;20264;-94
2022/03/15 12:29:38;;;;;;;1.27;1.17;;;13.20;90.20;;;;;;5059011;28;20238;-93
2022/03/15 12:32:18;;;;;;;1.55;1.45;;;13.40;85.30;;;;;;5055489;28;20284;-93
2022/03/15 12:34:50;;;;;;;0.90;0.65;;;13.00;88.60;;;;;;5053938;28;20200;-93
2022/03/15 12:37:33;;;;;;;2.10;1.85;;;12.90;89.90;;;;;;5058541;28;20700;-91
2022/03/15 12:40:03;;;;;;;2.80;1.63;;;12.80;84.70;;;;;;5059049;28;20199;-92
2022/03/15 12:43:09;;;;;;;1.55;1.25;;;13.00;83.60;;;;;;5074329;28;20652;-94
2022/03/15 12:45:46;;;;;;;2.85;1.95;;;12.80;83.20;;;;;;5019178;28;20242;-93
2022/03/15 12:48:12;;;;;;;4.85;2.20;;;12.30;86.50;;;;;;5075859;28;20204;-94
2022/03/15 12:50:59;;;;;;;4.53;1.73;;;12.40;88.00;;;;;;5075450;28;20203;-95
2022/03/15 12:53:48;;;;;;;1.45;1.35;;;12.50;88.70;;;;;;5075586;28;20543;-95